Portada
METAR-TAF:

METAR-TAF

Aeropuertos :

Aeropuerto de Chitá-Kadala

Chitá, Rusia

latitud: 52-05N, longitud: 113-29E, altitud: 685 m

Observación

El informe se hizo hace 43 minutos, a las 08:00 UTC
Viento 2 kt con dirección variable
Temperatura -11°C
Humedad 43%
Presión 1008 hPa
Visibilidad 10 km o más
Escasas nubes a una altura de 4300 ft, Cumulonimbus.

METAR: UIAA 140800Z VRB01MPS 9999 FEW043CB M11/M21 Q1008 R29/70D NOSIG RMK QFE698/0931

Hora: 17:43 (08:43 UTC)

Pronóstico

El informe se hizo hace 43 minutos, a las 08:00 UTC
Pronóstico válido del 14 a las 09 UTC al 15 a las 09 UTC
Viento 6 kt del suroeste con ráfagas de 16 kt
Visibilidad 10 km o más
Nubes dispersas a una altura de 4000 ft, Cumulonimbus.

TAF: UIAA 140800Z 1409/1509 22003G08MPS 9999 SCT040CB

Observaciones y pronósticos meteorológicos de más de 4000 aeropuertos (mensajes METAR y TAF).

Los puntos amarillos y rojos representan las estaciones disponibles.

Ponga el ratón en el punto deseado para ver el nombre de la estación.

Haga clic para ver las observaciones y los pronósticos meteorológicos.

Para cambiar el mapa : haga clic en los botones verdes con una cruz de color negro para hacer un zoom, en el botón verde con un guión para alejar o en las flechas verdes para mapas adyacentes.


METAR-TAF: